Time;durP1;ratioP1;P1;durP2;ratioP2;P2;SDS_P1;SDS_P2;PMS_P1;PMS_P2;Temp;Humidity;BMP_temperature;BMP_pressure;BME280_temperature;BME280_humidity;BME280_pressure;Samples;Min_cycle;Max_cycle;Signal;HPM_P1;HPM_P2
2022/08/18 00:00:15;;;;;;;22.42;19.13;;;22.00;99.90;;;;;;4117862;28;20463;-67
2022/08/18 00:02:19;;;;;;;27.52;21.25;;;22.00;99.90;;;;;;4114853;28;20117;-67
2022/08/18 00:04:19;;;;;;;25.38;21.70;;;21.90;99.90;;;;;;4118750;28;20042;-67
2022/08/18 00:06:20;;;;;;;25.27;21.33;;;21.90;99.90;;;;;;4112392;28;20535;-67
2022/08/18 00:08:21;;;;;;;24.73;21.25;;;21.90;99.90;;;;;;4117004;28;20033;-68
2022/08/18 00:10:21;;;;;;;24.33;20.75;;;21.80;99.90;;;;;;4121407;28;20088;-68
2022/08/18 00:12:27;;;;;;;24.65;20.45;;;21.70;99.90;;;;;;4124955;28;20060;-68
2022/08/18 00:14:27;;;;;;;27.17;22.10;;;21.60;99.90;;;;;;4125008;28;20096;-67
2022/08/18 00:16:28;;;;;;;25.77;20.65;;;21.60;99.90;;;;;;4120589;28;20035;-67
2022/08/18 00:18:29;;;;;;;23.65;19.60;;;21.60;99.90;;;;;;4125302;28;20031;-68
2022/08/18 00:20:29;;;;;;;25.80;21.02;;;21.60;99.90;;;;;;4123534;28;21125;-67
2022/08/18 00:22:30;;;;;;;27.42;21.83;;;21.60;99.90;;;;;;4123380;28;20030;-67
2022/08/18 00:24:30;;;;;;;26.05;21.60;;;21.60;99.90;;;;;;4124485;28;20026;-67
2022/08/18 00:26:31;;;;;;;29.95;24.58;;;21.60;99.90;;;;;;4118087;28;20041;-67
2022/08/18 00:28:32;;;;;;;28.77;24.95;;;21.60;99.90;;;;;;4123648;28;20042;-67
2022/08/18 00:30:33;;;;;;;30.38;25.02;;;21.60;99.90;;;;;;4123516;28;20040;-68
2022/08/18 00:32:37;;;;;;;33.25;26.40;;;21.60;99.90;;;;;;4124802;28;20478;-67
2022/08/18 00:34:38;;;;;;;31.42;25.70;;;21.60;99.90;;;;;;4120140;28;20034;-67
2022/08/18 00:36:39;;;;;;;33.47;27.67;;;21.50;99.90;;;;;;4121447;28;20497;-67
2022/08/18 00:38:40;;;;;;;30.50;25.45;;;21.50;99.90;;;;;;4125012;28;20385;-68
2022/08/18 00:40:47;;;;;;;34.80;28.65;;;21.50;99.90;;;;;;4124029;28;20038;-68
2022/08/18 00:42:51;;;;;;;28.38;24.05;;;21.50;99.90;;;;;;4124899;28;20030;-67
2022/08/18 00:44:52;;;;;;;33.33;27.25;;;21.50;99.90;;;;;;4120122;28;20066;-67
2022/08/18 00:46:52;;;;;;;34.58;28.23;;;21.50;99.90;;;;;;4115265;28;20026;-67
2022/08/18 00:48:53;;;;;;;35.92;29.95;;;21.50;99.90;;;;;;4111846;28;20117;-68
2022/08/18 00:51:01;;;;;;;33.28;27.33;;;21.40;99.90;;;;;;4116273;28;20042;-68
2022/08/18 00:53:16;;;;;;;31.48;25.48;;;21.50;99.90;;;;;;4106497;28;20529;-67
2022/08/18 00:55:19;;;;;;;37.53;29.45;;;21.50;99.90;;;;;;4106173;28;20038;-68
2022/08/18 00:57:21;;;;;;;35.30;27.08;;;21.50;99.90;;;;;;4117442;28;20051;-68
2022/08/18 00:59:43;;;;;;;32.75;25.15;;;21.40;99.90;;;;;;4117171;28;20089;-67
2022/08/18 01:01:45;;;;;;;33.47;26.58;;;21.50;99.90;;;;;;4112612;28;20035;-68
2022/08/18 01:03:51;;;;;;;36.22;28.40;;;21.50;99.90;;;;;;4103193;28;20118;-68
2022/08/18 01:06:00;;;;;;;32.38;24.77;;;21.50;99.90;;;;;;4111848;28;20363;-68
2022/08/18 01:08:02;;;;;;;30.73;25.35;;;21.50;99.90;;;;;;4107120;28;20031;-67
2022/08/18 01:10:04;;;;;;;30.35;24.63;;;21.50;99.90;;;;;;4115713;28;20066;-68
2022/08/18 01:12:05;;;;;;;32.67;25.30;;;21.60;99.90;;;;;;4116268;28;20062;-67
2022/08/18 01:14:08;;;;;;;36.72;29.17;;;21.60;99.90;;;;;;4110530;28;20039;-68
2022/08/18 01:23:30;;;;;;;37.58;26.77;;;21.40;99.90;;;;;;4113576;28;20043;-68
2022/08/18 01:27:51;;;;;;;36.50;27.63;;;21.40;99.90;;;;;;4113004;28;20146;-68
2022/08/18 01:29:52;;;;;;;37.13;26.88;;;21.40;99.90;;;;;;4113635;28;20034;-68
2022/08/18 01:31:55;;;;;;;37.78;28.52;;;21.50;99.90;;;;;;4105426;28;20366;-68
2022/08/18 01:33:57;;;;;;;38.13;28.83;;;21.50;99.90;;;;;;4108513;28;20042;-68
2022/08/18 01:36:19;;;;;;;33.77;25.77;;;21.40;99.90;;;;;;4104670;28;20035;-68
2022/08/18 01:38:21;;;;;;;38.60;28.55;;;21.40;99.90;;;;;;4097515;28;20474;-68
2022/08/18 01:40:23;;;;;;;31.42;23.50;;;21.40;99.90;;;;;;4105530;28;20110;-68
2022/08/18 01:42:24;;;;;;;35.85;27.08;;;21.50;99.90;;;;;;4106528;28;20042;-68
2022/08/18 01:44:25;;;;;;;38.90;28.20;;;21.50;99.90;;;;;;4113439;28;20038;-68
2022/08/18 01:46:29;;;;;;;35.90;26.20;;;21.50;99.90;;;;;;4102141;28;20063;-68
2022/08/18 01:48:33;;;;;;;40.60;28.65;;;21.50;99.90;;;;;;4097891;28;20042;-68
2022/08/18 01:50:36;;;;;;;37.33;27.35;;;21.50;99.90;;;;;;4104591;28;20073;-68
2022/08/18 01:52:37;;;;;;;45.00;30.67;;;21.40;99.90;;;;;;4103473;28;20451;-67
2022/08/18 01:54:39;;;;;;;41.28;30.83;;;21.40;99.90;;;;;;4105265;28;20501;-67
2022/08/18 01:56:41;;;;;;;41.15;29.38;;;21.40;99.90;;;;;;4111304;28;20039;-67
2022/08/18 01:58:43;;;;;;;40.90;29.20;;;21.40;99.90;;;;;;4113107;28;20086;-67
2022/08/18 02:00:43;;;;;;;36.65;26.90;;;21.40;99.90;;;;;;4112465;28;20045;-68
2022/08/18 02:02:45;;;;;;;41.50;29.98;;;21.40;99.90;;;;;;4112396;28;20042;-67
2022/08/18 02:04:46;;;;;;;37.03;27.45;;;21.30;99.90;;;;;;4105950;28;20042;-68
2022/08/18 02:06:47;;;;;;;44.83;31.30;;;21.40;99.90;;;;;;4104264;28;20411;-68
2022/08/18 02:08:47;;;;;;;39.80;29.60;;;21.30;99.90;;;;;;4112730;28;20122;-68
2022/08/18 02:10:48;;;;;;;42.70;30.55;;;21.20;99.90;;;;;;4103357;28;20039;-68
2022/08/18 02:12:49;;;;;;;40.60;28.88;;;21.30;99.90;;;;;;4102141;28;20584;-68
2022/08/18 02:17:46;;;;;;;44.67;31.23;;;21.20;99.90;;;;;;4097874;28;20054;-67
2022/08/18 02:19:47;;;;;;;39.67;29.08;;;21.10;99.90;;;;;;4097431;29;20442;-68
2022/08/18 02:21:48;;;;;;;37.33;27.38;;;21.10;99.90;;;;;;4108156;28;20117;-67
2022/08/18 02:23:49;;;;;;;43.65;28.48;;;21.10;99.90;;;;;;4094333;28;20391;-68
2022/08/18 02:25:50;;;;;;;37.38;27.17;;;21.10;99.90;;;;;;4108991;28;20482;-68
2022/08/18 02:27:50;;;;;;;35.92;26.92;;;21.20;99.90;;;;;;4112663;28;20035;-68
2022/08/18 02:29:51;;;;;;;40.55;28.08;;;21.20;99.90;;;;;;4113645;28;20034;-67
2022/08/18 02:31:52;;;;;;;36.95;27.67;;;21.20;99.90;;;;;;4119883;28;20493;-67
2022/08/18 02:33:53;;;;;;;37.92;26.98;;;21.20;99.90;;;;;;4120136;28;20501;-67
2022/08/18 02:35:54;;;;;;;40.38;29.00;;;21.20;99.90;;;;;;4115760;28;20043;-67
2022/08/18 02:38:04;;;;;;;44.13;31.27;;;21.20;99.90;;;;;;4120760;28;20037;-68
2022/08/18 02:40:08;;;;;;;39.55;29.60;;;21.20;99.90;;;;;;4120762;28;20501;-68
2022/08/18 02:42:09;;;;;;;38.17;27.55;;;21.20;99.90;;;;;;4117563;28;20034;-68
2022/08/18 02:44:10;;;;;;;35.65;26.40;;;21.20;99.90;;;;;;4118980;28;20039;-68
2022/08/18 02:46:11;;;;;;;37.53;27.67;;;21.20;99.90;;;;;;4115997;28;20062;-68
2022/08/18 02:48:12;;;;;;;36.95;26.38;;;21.20;99.90;;;;;;4120060;28;20141;-68
2022/08/18 02:50:13;;;;;;;36.97;27.23;;;21.20;99.90;;;;;;4118513;28;22736;-68
2022/08/18 02:52:14;;;;;;;36.67;27.45;;;21.20;99.90;;;;;;4120359;28;20493;-68
2022/08/18 02:54:15;;;;;;;33.97;25.02;;;21.20;99.90;;;;;;4120477;28;20030;-68
2022/08/18 02:56:26;;;;;;;38.85;27.27;;;21.20;99.90;;;;;;4114314;28;20041;-68
2022/08/18 02:58:26;;;;;;;42.10;29.98;;;21.20;99.90;;;;;;4118994;28;20084;-68
2022/08/18 03:00:27;;;;;;;39.17;28.52;;;21.20;99.90;;;;;;4119966;28;20727;-68
2022/08/18 03:02:28;;;;;;;37.35;27.10;;;21.20;99.90;;;;;;4115744;28;20448;-67
2022/08/18 03:04:29;;;;;;;42.67;29.83;;;21.20;99.90;;;;;;4120369;28;20109;-67
2022/08/18 03:06:30;;;;;;;38.85;28.98;;;21.20;99.90;;;;;;4114951;28;20035;-69
2022/08/18 03:08:31;;;;;;;37.40;27.42;;;21.20;99.90;;;;;;4109971;28;20828;-68
2022/08/18 03:10:31;;;;;;;36.30;26.40;;;21.20;99.90;;;;;;4118861;28;20569;-67
2022/08/18 03:12:32;;;;;;;41.30;29.23;;;21.20;99.90;;;;;;4119343;28;20047;-67
2022/08/18 03:14:34;;;;;;;38.17;27.15;;;21.20;99.90;;;;;;4118993;28;20476;-68
2022/08/18 03:16:36;;;;;;;;;;;21.20;99.90;;;;;;4113525;28;20030;-68
2022/08/18 03:18:37;;;;;;;38.15;26.38;;;21.20;99.90;;;;;;4120103;28;19964;-68
2022/08/18 03:20:38;;;;;;;33.22;24.83;;;21.30;99.90;;;;;;4119556;28;20042;-68
2022/08/18 03:22:38;;;;;;;33.15;24.98;;;21.30;99.90;;;;;;4117661;28;20398;-68
2022/08/18 03:24:39;;;;;;;35.25;25.75;;;21.30;99.90;;;;;;4116969;28;20151;-68
2022/08/18 03:26:42;;;;;;;32.38;23.92;;;21.30;99.90;;;;;;4117663;28;20026;-67
2022/08/18 03:28:46;;;;;;;35.33;25.55;;;21.30;99.90;;;;;;4119885;28;20071;-68
2022/08/18 03:30:46;;;;;;;34.92;25.92;;;21.30;99.90;;;;;;4119126;28;20521;-68
2022/08/18 03:32:47;;;;;;;34.78;24.65;;;21.30;99.90;;;;;;4116413;28;20038;-68
2022/08/18 03:34:48;;;;;;;41.90;29.65;;;21.30;99.90;;;;;;4114189;28;20409;-67
2022/08/18 03:36:50;;;;;;;37.28;26.45;;;21.30;99.90;;;;;;4119109;28;20054;-68
2022/08/18 03:38:52;;;;;;;39.70;28.08;;;21.30;99.90;;;;;;4119635;28;20490;-68
2022/08/18 03:40:53;;;;;;;40.03;29.10;;;21.30;99.90;;;;;;4119201;28;20141;-68
2022/08/18 03:42:53;;;;;;;41.05;28.42;;;21.30;99.90;;;;;;4119306;28;20034;-68
2022/08/18 03:44:54;;;;;;;45.30;31.85;;;21.30;99.90;;;;;;4114848;28;20090;-68
2022/08/18 03:46:56;;;;;;;41.42;29.42;;;21.30;99.90;;;;;;4116407;28;20117;-69
2022/08/18 03:48:58;;;;;;;49.80;35.03;;;21.20;99.90;;;;;;4117590;28;20039;-68
2022/08/18 03:51:14;;;;;;;45.17;31.80;;;21.10;99.90;;;;;;4119100;28;20038;-68
2022/08/18 03:53:15;;;;;;;37.47;26.95;;;21.10;99.90;;;;;;4119088;28;20027;-68
2022/08/18 03:55:16;;;;;;;35.30;24.17;;;21.00;99.90;;;;;;4114759;28;20548;-68
2022/08/18 03:57:16;;;;;;;37.45;26.48;;;21.10;99.90;;;;;;4119882;28;20085;-68
2022/08/18 03:59:22;;;;;;;38.53;26.48;;;21.10;99.90;;;;;;4119381;28;20043;-68
2022/08/18 04:01:31;;;;;;;43.60;30.65;;;21.10;99.90;;;;;;4117961;28;20109;-68
2022/08/18 04:03:32;;;;;;;40.42;27.33;;;21.10;99.90;;;;;;4110790;28;20472;-67
2022/08/18 04:05:34;;;;;;;38.42;26.88;;;21.10;99.90;;;;;;4113045;28;20031;-68
2022/08/18 04:07:34;;;;;;;42.42;27.92;;;21.10;99.90;;;;;;4116602;28;20079;-68
2022/08/18 04:09:37;;;;;;;43.53;28.10;;;21.10;99.90;;;;;;4118855;28;20035;-68
2022/08/18 04:11:41;;;;;;;;;;;21.10;99.90;;;;;;4117809;28;20045;-68
2022/08/18 04:13:42;;;;;;;41.38;28.73;;;21.10;99.90;;;;;;4119567;28;20288;-68
2022/08/18 04:15:43;;;;;;;38.63;26.55;;;21.10;99.90;;;;;;4112883;28;20031;-68
2022/08/18 04:17:45;;;;;;;41.45;27.95;;;21.20;99.90;;;;;;4119695;28;20037;-68
2022/08/18 04:19:45;;;;;;;40.30;27.10;;;21.10;99.90;;;;;;4116845;28;20061;-68
2022/08/18 04:21:51;;;;;;;44.58;31.13;;;21.10;99.90;;;;;;4118443;28;20023;-68
2022/08/18 04:23:51;;;;;;;40.17;27.30;;;21.10;99.90;;;;;;4121595;28;20456;-68
2022/08/18 04:26:00;;;;;;;37.15;25.77;;;21.20;99.90;;;;;;4118420;28;20030;-68
2022/08/18 04:28:02;;;;;;;40.65;26.80;;;21.20;99.90;;;;;;4126658;28;20397;-68
2022/08/18 04:30:02;;;;;;;42.00;27.08;;;21.20;99.90;;;;;;4117720;28;20042;-69
2022/08/18 04:32:03;;;;;;;39.63;26.90;;;21.20;99.90;;;;;;4116865;28;20052;-67
2022/08/18 04:34:05;;;;;;;44.40;29.88;;;21.20;99.90;;;;;;4115994;28;20494;-66
2022/08/18 04:36:15;;;;;;;50.42;31.95;;;21.30;99.90;;;;;;4109751;28;20094;-67
2022/08/18 04:38:16;;;;;;;44.85;29.42;;;21.30;99.90;;;;;;4112004;28;20027;-68
2022/08/18 04:40:17;;;;;;;42.10;29.02;;;21.30;99.90;;;;;;4096880;28;20459;-68
2022/08/18 04:42:17;;;;;;;48.42;32.22;;;21.30;99.90;;;;;;4095417;29;20550;-68
2022/08/18 04:44:20;;;;;;;48.65;32.88;;;21.30;99.90;;;;;;4101350;28;20035;-68
2022/08/18 04:46:21;;;;;;;46.22;30.45;;;21.30;99.90;;;;;;4108613;28;20059;-68
2022/08/18 04:48:21;;;;;;;51.45;33.05;;;21.30;99.90;;;;;;4110564;28;20090;-68
2022/08/18 04:50:23;;;;;;;50.40;32.65;;;21.40;99.90;;;;;;4111456;28;20510;-68
2022/08/18 04:54:43;;;;;;;49.63;31.30;;;21.30;99.90;;;;;;4116102;28;20065;-67
2022/08/18 04:56:43;;;;;;;43.72;29.85;;;21.30;99.90;;;;;;4113561;28;20035;-68
2022/08/18 04:58:50;;;;;;;42.88;27.65;;;21.40;99.90;;;;;;4114534;28;20071;-67
2022/08/18 05:01:00;;;;;;;48.67;31.15;;;21.40;99.90;;;;;;4113778;28;20041;-68
2022/08/18 05:03:00;;;;;;;50.95;31.67;;;21.40;99.90;;;;;;4114662;28;20038;-68
2022/08/18 05:05:03;;;;;;;57.28;35.83;;;21.40;99.90;;;;;;4109759;28;20061;-68
2022/08/18 05:07:06;;;;;;;52.47;33.38;;;21.40;99.90;;;;;;4112254;28;20027;-68
2022/08/18 05:09:09;;;;;;;45.70;31.25;;;21.40;99.90;;;;;;4098213;29;20039;-67
2022/08/18 05:11:09;;;;;;;49.72;32.60;;;21.40;99.90;;;;;;4113290;28;20124;-67
2022/08/18 05:13:10;;;;;;;51.38;32.33;;;21.40;99.90;;;;;;4114500;28;20039;-71
2022/08/18 05:15:10;;;;;;;52.15;33.75;;;21.40;99.90;;;;;;4112426;28;20030;-74
2022/08/18 05:17:13;;;;;;;43.80;29.35;;;21.40;99.90;;;;;;4114659;28;20057;-72
2022/08/18 05:19:14;;;;;;;;;;;21.50;99.90;;;;;;4114262;28;20561;-71
2022/08/18 05:21:15;;;;;;;43.65;29.30;;;21.50;99.90;;;;;;4113058;28;19910;-70
2022/08/18 05:23:16;;;;;;;43.15;29.58;;;21.50;99.90;;;;;;4109691;28;20385;-71
2022/08/18 05:25:16;;;;;;;48.80;32.83;;;21.50;99.90;;;;;;4116307;28;20038;-70
2022/08/18 05:27:17;;;;;;;46.78;32.40;;;21.50;99.90;;;;;;4126269;28;20034;-71
2022/08/18 05:29:22;;;;;;;46.58;32.08;;;21.40;99.90;;;;;;4126632;28;20027;-71
2022/08/18 05:31:24;;;;;;;45.17;29.85;;;21.40;99.90;;;;;;4115957;28;20046;-72
2022/08/18 05:33:25;;;;;;;38.35;27.95;;;21.40;99.90;;;;;;4098497;29;20110;-70
2022/08/18 05:35:34;;;;;;;42.63;27.75;;;21.40;99.90;;;;;;4103966;28;20039;-71
2022/08/18 05:37:58;;;;;;;38.90;26.38;;;21.50;99.90;;;;;;4111424;28;20035;-69
2022/08/18 05:40:06;;;;;;;45.40;32.45;;;21.50;99.90;;;;;;4109296;28;20422;-70
2022/08/18 05:42:13;;;;;;;47.83;30.25;;;21.40;99.90;;;;;;4109550;28;20026;-70
2022/08/18 05:44:17;;;;;;;32.20;24.77;;;21.40;99.90;;;;;;4110702;28;20034;-70
2022/08/18 05:46:23;;;;;;;36.65;27.83;;;21.40;99.90;;;;;;4109383;28;20038;-71
2022/08/18 05:48:24;;;;;;;38.45;27.33;;;21.50;99.90;;;;;;4110012;28;20050;-71
2022/08/18 05:50:26;;;;;;;43.38;30.30;;;21.50;99.90;;;;;;4097650;28;20387;-71
2022/08/18 05:52:38;;;;;;;35.72;26.23;;;21.50;99.90;;;;;;4110819;28;20428;-71
2022/08/18 05:57:14;;;;;;;35.25;25.67;;;21.50;99.90;;;;;;4110084;28;20379;-71
2022/08/18 05:59:22;;;;;;;39.88;28.23;;;21.50;99.90;;;;;;4109557;28;20089;-71
2022/08/18 06:01:32;;;;;;;37.35;26.95;;;21.50;99.90;;;;;;4109010;28;20043;-71
2022/08/18 06:03:37;;;;;;;32.30;23.27;;;21.50;99.90;;;;;;4110056;28;20035;-70
2022/08/18 06:05:52;;;;;;;30.52;23.33;;;21.50;99.90;;;;;;4108637;28;20047;-70
2022/08/18 06:07:58;;;;;;;28.50;22.63;;;21.50;99.90;;;;;;4109431;28;20480;-70
2022/08/18 06:09:58;;;;;;;27.58;20.50;;;21.50;99.90;;;;;;4110045;28;20506;-70
2022/08/18 06:12:16;;;;;;;31.85;21.85;;;21.50;99.90;;;;;;4108483;28;20122;-70
2022/08/18 06:14:17;;;;;;;34.15;23.75;;;21.50;99.90;;;;;;4109558;28;20041;-71
2022/08/18 06:16:30;;;;;;;29.42;22.92;;;21.60;99.90;;;;;;4110309;28;20070;-72
2022/08/18 06:19:09;;;;;;;30.05;22.35;;;21.60;99.90;;;;;;4109833;28;20066;-72
2022/08/18 06:21:31;;;;;;;26.52;20.27;;;21.60;99.90;;;;;;4109347;28;20026;-72
2022/08/18 06:23:45;;;;;;;25.70;19.88;;;21.60;99.90;;;;;;4110389;28;20643;-72
2022/08/18 06:26:07;;;;;;;29.92;24.50;;;21.60;99.90;;;;;;4105195;28;20544;-71
2022/08/18 06:28:12;;;;;;;29.30;21.67;;;21.60;99.90;;;;;;4110088;28;20027;-71
2022/08/18 06:30:24;;;;;;;27.10;21.48;;;21.60;99.90;;;;;;4111843;28;20030;-71
2022/08/18 06:33:20;;;;;;;30.10;21.80;;;21.60;99.90;;;;;;4110091;28;20038;-73
2022/08/18 06:36:01;;;;;;;26.88;21.63;;;21.60;99.90;;;;;;4043087;28;20030;-73
2022/08/18 06:40:36;;;;;;;21.83;16.90;;;21.40;99.90;;;;;;4106048;28;20045;-71
2022/08/18 06:42:38;;;;;;;23.23;18.35;;;21.40;99.90;;;;;;4109896;28;20061;-71
2022/08/18 06:44:47;;;;;;;19.02;16.02;;;21.40;99.90;;;;;;4108629;28;20035;-70
2022/08/18 06:47:04;;;;;;;18.67;15.48;;;21.40;99.90;;;;;;4102926;28;20517;-71
2022/08/18 06:49:08;;;;;;;16.15;13.48;;;21.40;99.90;;;;;;4108888;28;20047;-70
2022/08/18 06:51:12;;;;;;;23.48;17.23;;;21.40;99.90;;;;;;4109984;28;20034;-71
2022/08/18 06:53:13;;;;;;;16.67;14.00;;;21.40;99.90;;;;;;4108111;28;20066;-72
2022/08/18 06:55:16;;;;;;;17.15;13.30;;;21.50;99.90;;;;;;4108050;28;20105;-69
2022/08/18 06:57:26;;;;;;;16.98;13.85;;;21.50;99.90;;;;;;4106965;28;20093;-71
2022/08/18 06:59:30;;;;;;;18.52;13.70;;;21.60;99.90;;;;;;4111401;28;20039;-71
2022/08/18 07:01:31;;;;;;;21.02;16.05;;;21.60;99.90;;;;;;4109328;28;20042;-72
2022/08/18 07:03:38;;;;;;;18.25;14.90;;;21.60;99.90;;;;;;4108963;28;20098;-72
2022/08/18 07:06:06;;;;;;;21.27;16.58;;;21.50;99.90;;;;;;4107696;28;20031;-72
2022/08/18 07:08:19;;;;;;;16.35;13.35;;;21.50;99.90;;;;;;4108410;28;20473;-70
2022/08/18 07:10:19;;;;;;;16.67;12.40;;;21.60;99.90;;;;;;4107062;28;20015;-72
2022/08/18 07:12:24;;;;;;;19.52;15.15;;;21.60;99.90;;;;;;4098292;28;20174;-72
2022/08/18 07:14:27;;;;;;;19.00;14.45;;;21.60;99.90;;;;;;4110400;28;20043;-72
2022/08/18 07:16:27;;;;;;;18.52;14.60;;;21.60;99.90;;;;;;4108356;28;20062;-72
2022/08/18 07:18:28;;;;;;;16.50;13.13;;;21.60;99.90;;;;;;4108481;28;20482;-71
2022/08/18 07:20:29;;;;;;;19.40;14.80;;;21.60;99.90;;;;;;4115510;28;20038;-72
2022/08/18 07:22:30;;;;;;;17.60;13.93;;;21.60;99.90;;;;;;4109262;28;20271;-72
2022/08/18 07:24:41;;;;;;;15.70;12.45;;;21.60;99.90;;;;;;4110546;28;20490;-71
2022/08/18 07:27:12;;;;;;;12.55;10.63;;;21.60;99.90;;;;;;4104520;28;20181;-72
2022/08/18 07:29:14;;;;;;;14.85;11.43;;;21.60;99.90;;;;;;4107884;28;20390;-72
2022/08/18 07:31:23;;;;;;;13.20;10.02;;;21.70;99.90;;;;;;4108521;28;20048;-72
2022/08/18 07:33:25;;;;;;;12.88;8.95;;;21.70;99.90;;;;;;4115911;28;20039;-72
2022/08/18 07:35:38;;;;;;;16.50;9.80;;;21.70;99.90;;;;;;4107287;28;20045;-72
2022/08/18 07:37:45;;;;;;;11.23;8.90;;;21.80;99.90;;;;;;4110053;28;20035;-72
2022/08/18 07:39:57;;;;;;;13.00;9.80;;;21.80;99.90;;;;;;4110063;28;20042;-73
2022/08/18 07:42:05;;;;;;;13.10;8.32;;;21.90;99.90;;;;;;4112514;28;20038;-71
2022/08/18 07:44:19;;;;;;;11.20;8.13;;;21.90;99.90;;;;;;4116305;28;20050;-72
2022/08/18 07:46:39;;;;;;;7.28;6.55;;;21.90;99.90;;;;;;4095062;28;20336;-71
2022/08/18 07:48:40;;;;;;;13.82;9.75;;;22.00;99.90;;;;;;4110763;28;20114;-72
2022/08/18 07:51:00;;;;;;;9.43;8.05;;;22.00;99.90;;;;;;4108709;28;20057;-72
2022/08/18 07:53:27;;;;;;;8.82;7.90;;;22.00;99.90;;;;;;4110261;28;20047;-70
2022/08/18 07:55:30;;;;;;;10.80;8.00;;;22.00;99.90;;;;;;4108652;28;20035;-72
2022/08/18 07:57:58;;;;;;;12.57;10.50;;;22.10;99.90;;;;;;4110947;28;20039;-72
2022/08/18 08:00:23;;;;;;;9.20;6.97;;;22.10;99.90;;;;;;4106479;28;20035;-72
2022/08/18 08:02:45;;;;;;;9.88;7.90;;;22.20;99.90;;;;;;4097732;28;20104;-70
2022/08/18 08:05:04;;;;;;;8.05;6.28;;;22.20;99.90;;;;;;4110418;28;20498;-70
2022/08/18 08:07:13;;;;;;;14.27;8.90;;;22.20;99.90;;;;;;4109492;28;20034;-70
2022/08/18 08:09:39;;;;;;;11.02;7.85;;;22.20;99.90;;;;;;4112324;28;20485;-70
2022/08/18 08:12:03;;;;;;;9.85;8.05;;;22.20;99.90;;;;;;4106716;28;20094;-71
2022/08/18 08:14:27;;;;;;;13.10;8.43;;;22.30;99.90;;;;;;4114786;28;20482;-70
2022/08/18 08:16:44;;;;;;;9.82;8.50;;;22.30;99.90;;;;;;4108408;28;20039;-73
2022/08/18 08:19:21;;;;;;;10.80;7.90;;;22.30;99.90;;;;;;4108419;28;20098;-71
2022/08/18 08:21:27;;;;;;;11.15;7.78;;;22.30;99.90;;;;;;4103422;28;20308;-71
2022/08/18 08:23:40;;;;;;;12.70;8.60;;;22.40;99.90;;;;;;4107373;28;20046;-71
2022/08/18 08:26:04;;;;;;;12.13;8.35;;;22.50;99.90;;;;;;4106502;28;20035;-70
2022/08/18 08:28:33;;;;;;;10.63;7.63;;;22.50;99.90;;;;;;4107669;28;20030;-70
2022/08/18 08:30:47;;;;;;;10.40;8.60;;;22.50;99.90;;;;;;4108619;28;20134;-72
2022/08/18 08:33:09;;;;;;;9.65;8.07;;;22.50;99.90;;;;;;4111058;28;20134;-72
2022/08/18 08:35:11;;;;;;;10.70;8.43;;;22.50;99.90;;;;;;4099194;28;20881;-71
2022/08/18 08:37:20;;;;;;;12.00;8.50;;;22.50;99.90;;;;;;4111415;28;20266;-72
2022/08/18 08:39:45;;;;;;;11.38;7.65;;;22.60;99.90;;;;;;4111812;28;20494;-73
2022/08/18 08:41:52;;;;;;;9.93;7.72;;;22.60;99.90;;;;;;4108185;28;20062;-72
2022/08/18 08:44:06;;;;;;;10.57;8.93;;;22.60;99.90;;;;;;4115091;28;20038;-71
2022/08/18 08:46:24;;;;;;;10.27;7.68;;;22.60;99.90;;;;;;4106542;28;20023;-70
2022/08/18 08:48:29;;;;;;;10.48;7.72;;;22.60;99.90;;;;;;4110548;28;20071;-71
2022/08/18 08:50:35;;;;;;;10.50;7.75;;;22.60;99.90;;;;;;4113624;28;20035;-71
2022/08/18 08:52:51;;;;;;;6.50;5.70;;;22.70;99.90;;;;;;4110907;28;20034;-70
2022/08/18 08:55:01;;;;;;;6.72;5.38;;;22.70;99.90;;;;;;4108051;28;20087;-71
2022/08/18 08:57:03;;;;;;;11.55;6.40;;;22.80;99.90;;;;;;4106004;28;20046;-70
2022/08/18 08:59:08;;;;;;;8.93;5.90;;;22.80;99.90;;;;;;4110781;28;20432;-72
2022/08/18 09:01:26;;;;;;;8.80;5.32;;;22.70;99.90;;;;;;4108180;28;20126;-72
2022/08/18 09:03:44;;;;;;;10.45;5.38;;;22.80;99.90;;;;;;4110135;28;21047;-72
2022/08/18 09:06:19;;;;;;;4.55;4.05;;;22.90;99.90;;;;;;4109317;28;20027;-72
2022/08/18 09:08:57;;;;;;;3.88;3.47;;;22.90;99.90;;;;;;4098150;28;20411;-72
2022/08/18 09:11:22;;;;;;;5.25;3.75;;;22.90;99.90;;;;;;4108848;28;20723;-72
2022/08/18 09:14:01;;;;;;;7.57;3.72;;;22.90;99.90;;;;;;4108160;28;20085;-71
2022/08/18 09:16:16;;;;;;;5.18;4.00;;;22.90;99.90;;;;;;4107585;28;20039;-72
2022/08/18 09:18:47;;;;;;;4.30;3.90;;;22.90;99.90;;;;;;4109354;28;20089;-72
2022/08/18 09:20:51;;;;;;;6.57;4.57;;;23.00;99.90;;;;;;4110186;28;20485;-72
2022/08/18 09:23:03;;;;;;;5.18;4.35;;;23.00;99.90;;;;;;4110619;28;20031;-72
2022/08/18 09:25:29;;;;;;;5.97;4.10;;;23.00;99.90;;;;;;4100845;28;20046;-70
2022/08/18 09:27:44;;;;;;;6.53;5.32;;;23.10;99.90;;;;;;4110698;28;20125;-71
2022/08/18 09:29:58;;;;;;;5.28;4.30;;;23.00;99.90;;;;;;4110441;28;20114;-70
2022/08/18 09:32:34;;;;;;;5.80;4.13;;;23.10;99.90;;;;;;4109766;28;20038;-73
2022/08/18 09:34:50;;;;;;;5.80;5.10;;;23.10;99.90;;;;;;4110007;28;20142;-72
2022/08/18 09:37:03;;;;;;;5.30;4.43;;;23.10;99.90;;;;;;4110884;28;20129;-71
2022/08/18 09:42:10;;;;;;;6.65;4.55;;;23.10;99.90;;;;;;4110218;28;20075;-73
2022/08/18 09:44:13;;;;;;;6.35;4.82;;;23.20;99.90;;;;;;4111624;28;20046;-70
2022/08/18 09:46:40;;;;;;;7.85;4.90;;;23.30;99.90;;;;;;4111491;28;20041;-72
2022/08/18 09:48:40;;;;;;;6.85;5.68;;;23.30;99.90;;;;;;4111831;28;20501;-72
2022/08/18 09:51:00;;;;;;;6.38;4.80;;;23.30;99.90;;;;;;4112245;28;20124;-72
2022/08/18 09:53:31;;;;;;;5.78;5.18;;;23.30;99.90;;;;;;4110808;28;20043;-72
2022/08/18 09:55:32;;;;;;;5.00;4.32;;;23.40;99.90;;;;;;4111275;28;20134;-73
2022/08/18 09:57:37;;;;;;;5.53;4.28;;;23.40;99.90;;;;;;4110226;28;20421;-72
2022/08/18 09:59:50;;;;;;;4.90;4.30;;;23.50;99.90;;;;;;4109499;28;20490;-73
2022/08/18 10:01:50;;;;;;;5.65;4.60;;;23.50;99.90;;;;;;4110415;28;20425;-72
2022/08/18 10:04:17;;;;;;;6.00;4.55;;;23.50;99.90;;;;;;4113090;28;20069;-72
2022/08/18 10:06:18;;;;;;;6.70;5.03;;;23.60;99.90;;;;;;4117856;28;20406;-74
2022/08/18 10:08:48;;;;;;;6.47;4.43;;;23.70;99.90;;;;;;4111850;28;20036;-73
2022/08/18 10:10:55;;;;;;;6.45;4.88;;;23.60;99.90;;;;;;4110293;28;20165;-71
2022/08/18 10:13:32;;;;;;;8.73;5.22;;;23.50;99.90;;;;;;4109482;28;20042;-73
2022/08/18 10:16:00;;;;;;;4.82;4.05;;;23.60;99.90;;;;;;4107479;28;20035;-72
2022/08/18 10:18:07;;;;;;;5.45;4.28;;;23.70;99.90;;;;;;4109483;28;20041;-72
2022/08/18 10:20:31;;;;;;;4.53;3.75;;;23.80;99.90;;;;;;4110062;28;20045;-74
2022/08/18 10:22:46;;;;;;;6.63;4.10;;;23.90;99.90;;;;;;4110101;28;20728;-73
2022/08/18 10:24:57;;;;;;;4.35;3.95;;;23.90;99.90;;;;;;4111112;28;20046;-73
2022/08/18 10:27:01;;;;;;;4.97;3.92;;;24.00;99.90;;;;;;4110283;28;20034;-72
2022/08/18 10:29:10;;;;;;;5.18;4.05;;;24.10;99.90;;;;;;4111052;28;20046;-74
2022/08/18 10:31:11;;;;;;;5.72;4.75;;;24.10;99.90;;;;;;4109599;28;20062;-73
2022/08/18 10:33:31;;;;;;;5.68;4.32;;;24.20;99.90;;;;;;4111175;28;20158;-73
2022/08/18 10:35:35;;;;;;;5.93;4.20;;;24.20;99.90;;;;;;4110040;28;20050;-75
2022/08/18 10:37:43;;;;;;;4.55;4.07;;;24.30;99.90;;;;;;4109859;28;20630;-74
2022/08/18 10:39:52;;;;;;;5.80;4.40;;;24.40;99.90;;;;;;4110872;28;20122;-72
2022/08/18 10:42:16;;;;;;;4.78;3.78;;;24.30;99.90;;;;;;4110347;28;20077;-72
2022/08/18 10:44:21;;;;;;;5.85;4.47;;;24.40;99.90;;;;;;4110458;28;20047;-72
2022/08/18 10:46:25;;;;;;;6.70;4.50;;;24.40;99.90;;;;;;4109105;28;20493;-71
2022/08/18 10:48:29;;;;;;;7.40;4.68;;;24.40;99.90;;;;;;4108721;28;20041;-71
2022/08/18 10:50:42;;;;;;;4.45;3.65;;;24.30;99.90;;;;;;4110853;28;20403;-72
2022/08/18 10:53:08;;;;;;;9.27;5.07;;;24.30;99.90;;;;;;4110688;28;20126;-71
2022/08/18 10:55:33;;;;;;;5.75;4.15;;;24.20;99.90;;;;;;4108553;28;20122;-73
2022/08/18 10:57:59;;;;;;;7.75;4.38;;;24.30;99.90;;;;;;4109637;28;20034;-70
2022/08/18 11:00:12;;;;;;;4.53;4.10;;;24.40;99.90;;;;;;4108744;28;20118;-72
2022/08/18 11:02:16;;;;;;;6.38;4.65;;;24.50;99.90;;;;;;4110113;28;20050;-72
2022/08/18 11:04:41;;;;;;;5.32;3.65;;;24.70;99.90;;;;;;4110715;28;20566;-74
2022/08/18 11:06:47;;;;;;;4.45;3.70;;;24.80;99.90;;;;;;4109808;28;20513;-71
2022/08/18 11:08:51;;;;;;;5.47;4.03;;;24.90;99.90;;;;;;4108773;28;20482;-73
2022/08/18 11:10:53;;;;;;;7.05;4.22;;;25.00;99.90;;;;;;4109825;28;20035;-71
2022/08/18 11:13:30;;;;;;;3.75;3.45;;;25.10;99.90;;;;;;4108326;28;20122;-71
2022/08/18 11:15:42;;;;;;;3.20;2.90;;;25.20;99.90;;;;;;4110182;28;20707;-71